createdAt,value
2023-07-03T00:12:25.956Z,21.56
2023-07-03T00:27:27.724Z,21.97
2023-07-03T00:42:30.910Z,21.41
2023-07-03T00:57:32.676Z,22.04
2023-07-03T01:12:38.667Z,21.11
2023-07-03T01:27:43.967Z,21.03
2023-07-03T01:42:47.172Z,21.96
2023-07-03T01:58:04.900Z,22.06
2023-07-03T02:13:06.767Z,21.11
2023-07-03T02:28:08.644Z,21.34
2023-07-03T02:43:10.626Z,22.22
2023-07-03T02:58:12.328Z,19.39
2023-07-03T03:13:14.051Z,20.73
2023-07-03T03:28:15.722Z,21.02
2023-07-03T03:43:17.360Z,21.85
2023-07-03T03:58:20.571Z,22.34
2023-07-03T04:13:22.471Z,19.28
2023-07-03T04:28:24.660Z,21.37
2023-07-03T04:43:26.359Z,22.41
2023-07-03T04:58:28.060Z,21.85
2023-07-03T05:13:29.883Z,22.00
2023-07-03T05:28:35.062Z,23.50
2023-07-03T05:43:36.734Z,23.91
2023-07-03T05:58:38.488Z,24.57
2023-07-03T06:13:40.171Z,25.25
2023-07-03T06:28:41.822Z,25.36
2023-07-03T06:43:43.504Z,25.18
2023-07-03T06:58:45.231Z,25.12
2023-07-03T07:13:50.050Z,25.59
2023-07-03T07:28:52.418Z,26.00
2023-07-03T07:43:55.401Z,25.46
2023-07-03T07:58:58.175Z,26.32
2023-07-03T08:13:59.822Z,25.49
2023-07-03T08:29:01.923Z,26.26
2023-07-03T08:44:04.215Z,25.87
2023-07-03T08:59:07.225Z,25.64
2023-07-03T09:14:15.412Z,25.30
2023-07-03T09:29:17.086Z,25.99
2023-07-03T09:44:20.262Z,26.05
2023-07-03T09:59:25.183Z,28.19
2023-07-03T10:14:48.864Z,27.62
2023-07-03T10:29:54.547Z,26.76
2023-07-03T10:45:02.263Z,28.23
2023-07-03T11:00:13.207Z,28.14
2023-07-03T11:15:23.676Z,28.90
2023-07-03T11:30:27.085Z,28.07
2023-07-03T11:45:28.964Z,28.08
2023-07-03T12:00:33.076Z,28.23
2023-07-03T12:15:34.780Z,28.27
2023-07-03T12:30:38.093Z,27.28
2023-07-03T12:45:39.749Z,27.32
2023-07-03T13:00:41.738Z,27.21
2023-07-03T13:15:45.859Z,27.85
2023-07-03T13:31:03.927Z,27.79
2023-07-03T13:46:05.799Z,28.79
2023-07-03T14:01:21.062Z,28.51
2023-07-03T14:16:23.331Z,27.80
2023-07-03T14:31:25.208Z,27.75
2023-07-03T14:46:26.913Z,27.29
2023-07-03T15:01:29.070Z,27.62
2023-07-03T15:16:32.716Z,27.83
2023-07-03T15:31:34.563Z,27.24
2023-07-03T15:46:38.771Z,27.32
2023-07-03T16:01:40.608Z,27.39
2023-07-03T16:16:42.382Z,27.75
2023-07-03T16:31:46.301Z,27.42
2023-07-03T16:46:48.719Z,27.49
2023-07-03T17:01:50.482Z,27.06
2023-07-03T17:16:52.284Z,26.62
2023-07-03T17:31:54.161Z,26.59
2023-07-03T17:46:55.998Z,26.16
2023-07-03T18:01:57.922Z,26.46
2023-07-03T18:16:59.723Z,25.95
2023-07-03T18:32:01.422Z,25.34
2023-07-03T18:47:04.732Z,25.54
2023-07-03T19:02:07.503Z,24.81
2023-07-03T19:17:09.260Z,24.83
2023-07-03T19:32:11.020Z,22.85
2023-07-03T19:47:12.812Z,23.73
2023-07-03T20:02:14.506Z,23.77
2023-07-03T20:17:16.276Z,23.08
2023-07-03T20:32:19.051Z,23.34
2023-07-03T20:47:21.382Z,22.83
2023-07-03T21:02:23.120Z,22.95
2023-07-03T21:17:24.865Z,22.61
2023-07-03T21:32:26.625Z,22.69
2023-07-03T21:47:28.559Z,21.02
2023-07-03T22:02:30.246Z,21.60
2023-07-03T22:17:31.991Z,19.61
2023-07-03T22:32:33.946Z,21.02
2023-07-03T22:47:36.006Z,21.15
2023-07-03T23:02:41.409Z,21.20
2023-07-03T23:17:43.196Z,19.57
2023-07-03T23:32:45.008Z,19.83
2023-07-03T23:47:48.224Z,20.70
